createdAt,value
2024-04-08T04:27:46.104Z,19.78
2024-04-08T04:30:13.829Z,19.83
2024-04-08T04:32:44.250Z,19.85
2024-04-08T04:35:11.947Z,19.84
2024-04-08T04:37:42.691Z,19.82
2024-04-08T04:40:11.432Z,19.70
2024-04-08T04:42:41.751Z,19.63
2024-04-08T04:45:12.214Z,19.59
2024-04-08T04:47:42.865Z,19.47
2024-04-08T04:50:10.574Z,19.40
2024-04-08T04:52:40.840Z,19.37
2024-04-08T04:55:08.694Z,19.42
2024-04-08T04:57:39.045Z,19.50
2024-04-08T05:00:11.739Z,19.55
2024-04-08T05:02:43.638Z,19.63
2024-04-08T05:05:11.364Z,19.73
2024-04-08T05:07:41.667Z,19.80
2024-04-08T05:10:09.838Z,19.89
2024-04-08T05:12:40.169Z,19.94
2024-04-08T05:15:10.643Z,19.98
2024-04-08T05:17:41.028Z,20.05
2024-04-08T05:20:11.392Z,20.13
2024-04-08T05:22:49.201Z,20.22
2024-04-08T05:25:18.220Z,20.32
2024-04-08T05:27:48.471Z,20.46
2024-04-08T05:30:18.866Z,20.50
2024-04-08T05:32:49.163Z,20.60
2024-04-08T05:35:17.112Z,20.68
2024-04-08T05:37:48.477Z,20.71
2024-04-08T05:40:23.082Z,20.70
2024-04-08T05:42:53.576Z,20.64
2024-04-08T05:45:23.884Z,20.64
2024-04-08T05:47:55.659Z,20.63
2024-04-08T05:50:24.525Z,20.56
2024-04-08T05:52:55.245Z,20.46
2024-04-08T05:55:23.120Z,20.42
2024-04-08T05:57:53.452Z,20.43
2024-04-08T06:00:23.804Z,20.43
2024-04-08T06:02:56.191Z,20.39
2024-04-08T06:05:27.256Z,20.52
2024-04-08T06:07:59.002Z,20.61
2024-04-08T06:10:32.174Z,20.74
2024-04-08T06:13:04.908Z,20.80
2024-04-08T06:15:41.404Z,20.93
2024-04-08T06:18:15.485Z,20.92
2024-04-08T06:20:44.108Z,20.90
2024-04-08T06:23:14.415Z,20.83
2024-04-08T06:25:44.727Z,20.85
2024-04-08T06:28:15.012Z,20.84
2024-04-08T06:30:45.385Z,20.96
2024-04-08T06:33:15.821Z,21.15
2024-04-08T06:35:45.469Z,21.25
2024-04-08T06:38:16.169Z,21.25
2024-04-08T06:40:44.914Z,21.30
2024-04-08T06:43:15.142Z,21.37
2024-04-08T06:45:45.491Z,21.33
2024-04-08T06:48:15.834Z,21.33
2024-04-08T06:50:43.638Z,21.26
2024-04-08T06:53:13.947Z,21.31
2024-04-08T06:55:42.311Z,21.29
2024-04-08T06:58:16.307Z,21.23
2024-04-08T07:00:50.086Z,21.18
2024-04-08T07:03:24.432Z,21.19
2024-04-08T07:05:52.141Z,21.06
2024-04-08T07:08:22.404Z,21.03
2024-04-08T07:10:50.149Z,21.09
2024-04-08T07:13:20.423Z,20.98
2024-04-08T07:15:57.039Z,21.19
2024-04-08T07:18:27.766Z,21.43
2024-04-08T07:20:55.473Z,21.39
2024-04-08T07:23:31.048Z,21.46
2024-04-08T07:26:03.042Z,21.40
2024-04-08T07:28:33.365Z,21.35
2024-04-08T07:31:03.808Z,21.35
2024-04-08T07:33:34.082Z,21.48
2024-04-08T07:36:01.922Z,21.60
2024-04-08T07:38:33.579Z,21.68
2024-04-08T07:41:01.234Z,21.72
2024-04-08T07:43:31.736Z,21.82
2024-04-08T07:45:59.317Z,21.91
2024-04-08T07:48:32.395Z,21.87
2024-04-08T07:51:00.278Z,21.87
2024-04-08T07:53:31.201Z,21.82
2024-04-08T07:55:59.098Z,21.70
2024-04-08T07:58:31.725Z,21.59
2024-04-08T08:00:59.719Z,21.56
2024-04-08T08:03:32.853Z,21.67
2024-04-08T08:06:01.890Z,21.70
2024-04-08T08:08:33.111Z,21.81
2024-04-08T08:11:05.048Z,22.04
2024-04-08T08:13:35.544Z,22.38
2024-04-08T08:16:06.658Z,22.66
2024-04-08T08:18:39.570Z,22.61
2024-04-08T08:21:10.008Z,22.59
2024-04-08T08:23:42.517Z,22.59
2024-04-08T08:26:12.888Z,22.77
2024-04-08T08:28:43.204Z,23.01
2024-04-08T08:31:13.527Z,23.36
2024-04-08T08:33:46.851Z,23.66
2024-04-08T08:36:14.879Z,23.87
2024-04-08T08:38:45.497Z,24.01
2024-04-08T08:41:17.121Z,24.15
2024-04-08T08:43:48.369Z,24.26
2024-04-08T08:46:19.270Z,24.18
2024-04-08T08:48:53.291Z,24.24
2024-04-08T08:51:26.022Z,24.41
2024-04-08T08:53:53.837Z,24.38
2024-04-08T08:56:24.141Z,24.40
2024-04-08T08:58:56.639Z,24.61
2024-04-08T09:01:28.175Z,24.71
2024-04-08T09:04:01.381Z,24.71
2024-04-08T09:06:33.847Z,24.60
2024-04-08T09:09:03.368Z,24.86
2024-04-08T09:11:33.768Z,25.01
2024-04-08T09:14:07.881Z,25.34
2024-04-08T09:16:38.436Z,25.47
2024-04-08T09:19:08.949Z,25.56
2024-04-08T09:21:41.707Z,25.74
2024-04-08T09:24:10.237Z,25.99
2024-04-08T09:26:41.923Z,26.23
2024-04-08T09:29:09.644Z,26.40
2024-04-08T09:31:40.271Z,26.53
2024-04-08T09:34:11.491Z,26.63
2024-04-08T09:36:46.973Z,26.65
2024-04-08T09:39:16.056Z,26.79
2024-04-08T09:41:49.050Z,27.07
2024-04-08T09:44:19.356Z,27.02
2024-04-08T09:46:51.180Z,27.00
2024-04-08T09:49:27.319Z,27.16
2024-04-08T09:52:01.936Z,27.30
2024-04-08T09:54:29.790Z,27.40
2024-04-08T09:57:04.555Z,27.48
2024-04-08T09:59:36.328Z,27.54
2024-04-08T10:02:30.380Z,27.57
2024-04-08T10:07:42.863Z,27.69
2024-04-08T10:08:12.625Z,28.01
2024-04-08T10:10:41.928Z,28.01
2024-04-08T10:13:15.365Z,27.84
2024-04-08T10:19:10.155Z,27.57
2024-04-08T10:22:03.962Z,27.52
2024-04-08T10:24:41.927Z,27.37
2024-04-08T10:27:44.656Z,27.56
2024-04-08T10:30:31.367Z,28.03
2024-04-08T10:33:33.831Z,28.03
2024-04-08T10:36:09.226Z,28.19
2024-04-08T10:38:39.630Z,28.51
2024-04-08T10:41:10.895Z,28.72
2024-04-08T10:43:38.913Z,28.99
2024-04-08T10:46:16.291Z,29.27
2024-04-08T10:48:44.236Z,29.25
2024-04-08T10:51:18.052Z,29.37
2024-04-08T10:53:50.083Z,29.49
2024-04-08T10:56:20.731Z,29.22
2024-04-08T10:58:48.376Z,28.92
2024-04-08T11:01:24.983Z,28.70
2024-04-08T11:04:26.983Z,28.80
2024-04-08T11:06:57.238Z,29.17
2024-04-08T11:09:28.050Z,29.42
2024-04-08T11:11:58.381Z,29.56
2024-04-08T11:14:26.146Z,29.59
2024-04-08T11:17:00.228Z,29.66
2024-04-08T11:19:30.085Z,29.67
2024-04-08T11:22:00.686Z,29.86
2024-04-08T11:24:31.622Z,29.97
2024-04-08T11:27:04.475Z,30.12
2024-04-08T11:29:32.284Z,30.25
2024-04-08T11:32:02.864Z,30.34
2024-04-08T11:34:30.572Z,30.44
2024-04-08T11:37:04.757Z,30.36
2024-04-08T11:39:35.162Z,30.32
2024-04-08T11:42:05.393Z,30.26
2024-04-08T11:44:38.581Z,30.17
2024-04-08T11:47:19.972Z,30.25
2024-04-08T11:50:14.815Z,30.38
2024-04-08T11:52:48.466Z,30.39
2024-04-08T11:58:41.459Z,30.66
2024-04-08T12:01:24.040Z,30.89
2024-04-08T12:03:59.336Z,30.94
2024-04-08T12:06:37.482Z,31.00
2024-04-08T12:09:46.404Z,30.95
2024-04-08T12:12:19.329Z,30.45
2024-04-08T12:14:58.111Z,30.02
2024-04-08T12:17:34.780Z,29.88
2024-04-08T12:20:07.966Z,29.91
2024-04-08T12:22:47.936Z,30.18
2024-04-08T12:26:04.574Z,30.28
2024-04-08T12:28:51.239Z,29.93
2024-04-08T12:31:44.479Z,30.03
2024-04-08T12:34:13.294Z,30.24
2024-04-08T12:36:43.698Z,30.41
2024-04-08T12:39:11.539Z,30.53
2024-04-08T12:41:41.807Z,30.52
2024-04-08T12:44:13.670Z,30.67
2024-04-08T12:46:44.532Z,30.75
2024-04-08T12:49:15.980Z,30.81
2024-04-08T12:51:50.589Z,30.90
2024-04-08T12:54:18.790Z,31.04
2024-04-08T12:56:49.889Z,31.16
2024-04-08T12:59:20.546Z,31.22
2024-04-08T13:01:50.836Z,31.16
2024-04-08T13:04:18.648Z,31.02
2024-04-08T13:06:49.014Z,30.87
2024-04-08T13:09:16.834Z,30.84
2024-04-08T13:11:47.374Z,30.96
2024-04-08T13:14:15.016Z,30.96
2024-04-08T13:16:48.094Z,30.88
2024-04-08T13:19:15.948Z,30.81
2024-04-08T13:21:47.146Z,30.71
2024-04-08T13:24:15.411Z,31.02
2024-04-08T13:26:46.352Z,31.14
2024-04-08T13:29:14.005Z,31.25
2024-04-08T13:31:46.089Z,31.39
2024-04-08T13:34:18.962Z,31.50
2024-04-08T13:36:49.962Z,31.80
2024-04-08T13:39:18.434Z,31.88
2024-04-08T13:41:48.938Z,31.67
2024-04-08T13:44:16.643Z,31.80
2024-04-08T13:46:47.270Z,31.81
2024-04-08T13:49:17.728Z,31.78
2024-04-08T13:51:57.005Z,31.70
2024-04-08T13:54:30.076Z,31.66
2024-04-08T13:57:10.329Z,31.51
2024-04-08T13:59:41.024Z,31.48
2024-04-08T14:02:11.829Z,31.47
2024-04-08T14:04:42.288Z,31.68
2024-04-08T14:07:13.311Z,31.70
2024-04-08T14:09:40.985Z,31.72
2024-04-08T14:12:11.623Z,31.58
2024-04-08T14:14:39.236Z,31.32
2024-04-08T14:17:09.660Z,31.17
2024-04-08T14:19:37.268Z,31.19
2024-04-08T14:22:10.317Z,31.21
2024-04-08T14:24:37.865Z,31.14
2024-04-08T14:27:11.996Z,31.26
2024-04-08T14:29:48.140Z,31.28
2024-04-08T14:32:23.119Z,31.28
2024-04-08T14:34:53.257Z,31.20
2024-04-08T14:38:00.901Z,31.15
2024-04-08T14:40:30.674Z,31.01
2024-04-08T14:43:12.476Z,30.93
2024-04-08T14:45:43.576Z,30.86
2024-04-08T14:48:13.932Z,30.74
2024-04-08T14:50:41.641Z,30.72
2024-04-08T14:53:15.968Z,30.75
2024-04-08T14:55:44.075Z,30.75
2024-04-08T14:58:14.785Z,30.72
2024-04-08T15:00:42.967Z,30.59
2024-04-08T15:03:13.425Z,30.57
2024-04-08T15:05:44.469Z,30.52
2024-04-08T15:08:21.319Z,30.53
2024-04-08T15:10:52.707Z,30.54
2024-04-08T15:13:20.414Z,30.51
2024-04-08T15:15:51.794Z,30.52
2024-04-08T15:18:19.554Z,30.42
2024-04-08T15:20:50.102Z,30.37
2024-04-08T15:23:20.630Z,30.41
2024-04-08T15:25:51.018Z,30.48
2024-04-08T15:28:20.963Z,30.51
2024-04-08T15:30:59.653Z,30.56
2024-04-08T15:33:28.271Z,30.52
2024-04-08T15:36:01.639Z,30.46
2024-04-08T15:38:32.198Z,30.37
2024-04-08T15:41:03.821Z,30.28
2024-04-08T15:43:31.636Z,30.19
2024-04-08T15:46:04.178Z,30.09
2024-04-08T15:48:33.728Z,30.02
2024-04-08T15:51:07.168Z,30.00
2024-04-08T15:53:37.479Z,29.99
2024-04-08T15:56:08.772Z,29.96
2024-04-08T15:58:37.946Z,29.89
2024-04-08T16:01:08.637Z,29.78
2024-04-08T16:03:36.562Z,29.66
2024-04-08T16:06:14.428Z,29.48
2024-04-08T16:08:45.962Z,29.34
2024-04-08T16:11:21.914Z,29.28
2024-04-08T16:13:49.970Z,29.19
2024-04-08T16:16:20.384Z,29.17
2024-04-08T16:18:49.202Z,29.15
2024-04-08T16:21:24.011Z,29.10
2024-04-08T16:23:56.421Z,29.01
2024-04-08T16:26:27.724Z,28.93
2024-04-08T16:28:59.763Z,28.90
2024-04-08T16:31:34.270Z,28.80
2024-04-08T16:34:02.708Z,28.77
2024-04-08T16:36:33.778Z,28.74
2024-04-08T16:39:08.404Z,28.74
2024-04-08T16:41:38.658Z,28.71
2024-04-08T16:44:08.290Z,28.66
2024-04-08T16:46:38.802Z,28.56
2024-04-08T16:49:06.624Z,28.44
2024-04-08T16:51:38.031Z,28.37
2024-04-08T16:54:08.531Z,28.28
2024-04-08T16:56:38.872Z,28.21
2024-04-08T16:59:06.483Z,28.13
2024-04-08T17:01:39.512Z,28.04
2024-04-08T17:04:07.937Z,27.95
2024-04-08T17:06:41.596Z,27.89
2024-04-08T17:09:12.822Z,27.83
2024-04-08T17:11:43.300Z,27.78
2024-04-08T17:14:11.006Z,27.71
2024-04-08T17:16:41.334Z,27.69
2024-04-08T17:19:09.042Z,27.65
2024-04-08T17:21:39.826Z,27.60
2024-04-08T17:24:10.853Z,27.54
2024-04-08T17:26:44.223Z,27.50
2024-04-08T17:29:11.839Z,27.44
2024-04-08T17:31:42.077Z,27.36
2024-04-08T17:34:11.172Z,27.30
2024-04-08T17:36:41.883Z,27.27
2024-04-08T17:39:16.920Z,27.23
2024-04-08T17:41:48.931Z,27.18
2024-04-08T17:44:16.696Z,27.16
2024-04-08T17:46:47.021Z,27.13
2024-04-08T17:49:14.885Z,27.12
2024-04-08T17:51:45.336Z,27.07
2024-04-08T17:54:17.871Z,27.04
2024-04-08T17:56:48.302Z,26.96
2024-04-08T17:59:15.921Z,26.89
2024-04-08T18:01:47.612Z,26.81
2024-04-08T18:04:15.672Z,26.74
2024-04-08T18:06:46.144Z,26.68
2024-04-08T18:09:18.279Z,26.61
2024-04-08T18:11:54.016Z,26.55
2024-04-08T18:14:24.700Z,26.48
2024-04-08T18:16:55.006Z,26.45
2024-04-08T18:19:22.558Z,26.39
2024-04-08T18:21:52.842Z,26.35
2024-04-08T18:24:24.637Z,26.32
2024-04-08T18:26:54.916Z,26.28
2024-04-08T18:29:22.625Z,26.25
2024-04-08T18:31:52.850Z,26.24
2024-04-08T18:34:20.686Z,26.22
2024-04-08T18:36:52.402Z,26.20
2024-04-08T18:39:25.417Z,26.18
2024-04-08T18:41:54.474Z,26.15
2024-04-08T18:44:27.504Z,26.13
2024-04-08T18:46:55.135Z,26.09
2024-04-08T18:49:25.739Z,26.08
2024-04-08T18:51:53.563Z,26.06
2024-04-08T18:54:27.603Z,26.01
2024-04-08T18:56:59.472Z,25.98
2024-04-08T18:59:38.447Z,25.92
2024-04-08T19:02:38.934Z,25.90
2024-04-08T19:05:11.388Z,25.84
2024-04-08T19:07:39.208Z,25.79
2024-04-08T19:10:13.769Z,25.78
2024-04-08T19:12:47.462Z,25.70
2024-04-08T19:15:20.821Z,25.64
2024-04-08T19:17:49.017Z,25.56
2024-04-08T19:20:19.747Z,25.57
2024-04-08T19:22:47.511Z,25.56
2024-04-08T19:25:21.774Z,25.52
2024-04-08T19:27:56.794Z,25.50
2024-04-08T19:30:41.642Z,25.47
2024-04-08T19:33:09.397Z,25.44
2024-04-08T19:35:39.790Z,25.41
2024-04-08T19:38:08.027Z,25.36
2024-04-08T19:40:46.168Z,25.32
2024-04-08T19:43:19.636Z,25.25
2024-04-08T19:46:21.211Z,25.21
2024-04-08T19:48:52.295Z,25.15
2024-04-08T19:51:37.684Z,25.10
2024-04-08T19:54:09.981Z,25.04
2024-04-08T19:57:10.837Z,24.96
2024-04-08T20:00:06.564Z,24.89
2024-04-08T20:03:08.126Z,24.81
2024-04-08T20:05:38.006Z,24.73
2024-04-08T20:08:15.895Z,24.69
2024-04-08T20:11:18.572Z,24.67
2024-04-08T20:14:14.251Z,24.55
2024-04-08T20:16:54.217Z,24.48
2024-04-08T20:19:37.928Z,24.42
2024-04-08T20:22:08.453Z,24.38
2024-04-08T20:24:43.922Z,24.34
2024-04-08T20:27:11.600Z,24.29
2024-04-08T20:29:44.550Z,24.25
2024-04-08T20:32:12.213Z,24.21
2024-04-08T20:34:42.533Z,24.17
2024-04-08T20:37:12.173Z,24.10
2024-04-08T20:39:42.386Z,24.04
2024-04-08T20:42:10.180Z,23.98
2024-04-08T20:44:43.105Z,23.93
2024-04-08T20:47:10.806Z,23.86
2024-04-08T20:49:41.181Z,23.80
2024-04-08T20:52:09.158Z,23.76
2024-04-08T20:54:39.828Z,23.72
2024-04-08T20:57:08.008Z,23.67
2024-04-08T20:59:38.233Z,23.59
2024-04-08T21:02:09.122Z,23.52
2024-04-08T21:04:39.682Z,23.45
2024-04-08T21:07:08.552Z,23.44
2024-04-08T21:09:39.658Z,23.40
2024-04-08T21:12:07.670Z,23.37
2024-04-08T21:14:39.001Z,23.36
2024-04-08T21:17:10.429Z,23.35
2024-04-08T21:19:40.979Z,23.33
2024-04-08T21:22:08.603Z,23.33
2024-04-08T21:24:39.636Z,23.32
2024-04-08T21:27:07.384Z,23.35
2024-04-08T21:29:37.702Z,23.34
2024-04-08T21:32:08.402Z,23.36
2024-04-08T21:34:38.743Z,23.35
2024-04-08T21:37:06.420Z,23.35
2024-04-08T21:39:36.768Z,23.35
2024-04-08T21:42:05.272Z,23.34
2024-04-08T21:44:35.634Z,23.34
2024-04-08T21:47:03.301Z,23.30
2024-04-08T21:49:36.435Z,23.29
2024-04-08T21:52:04.501Z,23.26
2024-04-08T21:54:36.425Z,23.27
2024-04-08T21:57:04.422Z,23.24
2024-04-08T21:59:34.913Z,23.24
2024-04-08T22:02:02.559Z,23.25
2024-04-08T22:04:35.636Z,23.22
2024-04-08T22:07:03.354Z,23.19
2024-04-08T22:09:33.685Z,23.11
2024-04-08T22:12:01.471Z,23.03
2024-04-08T22:14:31.774Z,22.97
2024-04-08T22:16:59.525Z,22.91
2024-04-08T22:19:30.100Z,22.83
2024-04-08T22:22:00.378Z,22.73
2024-04-08T22:24:30.832Z,22.67
2024-04-08T22:26:58.600Z,22.64
2024-04-08T22:29:30.637Z,22.61
2024-04-08T22:31:58.278Z,22.55
2024-04-08T22:34:28.659Z,22.51
2024-04-08T22:36:56.334Z,22.49
2024-04-08T22:39:29.312Z,22.47
2024-04-08T22:41:57.129Z,22.43
2024-04-08T22:44:27.492Z,22.40
2024-04-08T22:46:55.188Z,22.35
2024-04-08T22:49:25.679Z,22.31
2024-04-08T22:51:53.337Z,22.28
2024-04-08T22:54:23.611Z,22.25
2024-04-08T22:56:53.961Z,22.20
2024-04-08T22:59:24.278Z,22.13
2024-04-08T23:01:52.071Z,22.06
2024-04-08T23:04:22.884Z,22.03
2024-04-08T23:06:50.619Z,21.99
2024-04-08T23:09:20.941Z,21.98
2024-04-08T23:11:48.603Z,21.94
2024-04-08T23:14:21.505Z,21.91
2024-04-08T23:16:49.425Z,21.86
2024-04-08T23:19:19.934Z,21.80
2024-04-08T23:21:47.674Z,21.74
2024-04-08T23:24:18.109Z,21.66
2024-04-08T23:26:45.719Z,21.65
2024-04-08T23:29:15.991Z,21.65
2024-04-08T23:31:48.943Z,21.61
2024-04-08T23:34:16.754Z,21.56
2024-04-08T23:36:47.187Z,21.57
2024-04-08T23:39:15.640Z,21.55
2024-04-08T23:41:45.988Z,21.52
2024-04-08T23:44:13.576Z,21.48
2024-04-08T23:46:43.849Z,21.48
2024-04-08T23:49:15.985Z,21.46
2024-04-08T23:51:46.633Z,21.44
2024-04-08T23:54:14.250Z,21.43
2024-04-08T23:56:44.440Z,21.40
2024-04-08T23:59:12.343Z,21.38
